Latest Weather Observations for Tamworth Airport

IDN60801

Issued at 10:03 am EST Saturday 2 July 2016 (issued every 30 minutes, with the page automatically refreshed every 10 minutes)

About weather observations | Map of weather stations | Latest weather observations for NSW | Other Formats
Station Details ID: 055325 Name: TAMWORTH AIRPORT AWS Lat: -31.07 Lon: 150.84 Height: 394.9 m
Data from the previous 72 hours. | See also: Recent months at Tamworth Airport
Date/Time
EST
Temp
°C
App
Temp
°C
Dew
Point
°C
Rel
Hum
%
Delta-T
°C
Wind Press
QNH
hPa
Press
MSL
hPa
Rain since
9am
mm
Dir  Spd
km/h
Gust
km/h
Spd
kts
Gust
kts
02/10:00am 7.6 5.4 3.3 74 1.9 SSE 4 7 2 4 1027.4 1027.9 0.0
02/09:30am 6.6 3.9 2.9 77 1.6 E 6 7 3 4 1027.6 1028.1 0.0
02/09:00am 4.8 1.5 2.5 85 0.9 SE 9 11 5 6 1027.3 1027.8 0.2
02/08:30am 3.5 1.1 1.9 89 0.6 ESE 4 9 2 5 1027.2 1027.7 0.2
02/08:00am 1.1 -0.9 -0.2 91 0.5 CALM 0 6 0 3 1027.1 1027.5 0.2
02/07:30am -2.0 -4.4 -3.4 90 0.4 CALM 0 0 0 0 1027.0 1027.4 0.0
02/07:00am -1.5 -3.9 -2.8 91 0.4 CALM 0 2 0 1 1026.8 1027.2 0.0
02/06:30am -1.0 -3.3 -2.1 92 0.3 CALM 0 0 0 0 1026.4 1026.8 0.0
02/06:29am -0.9 -3.2 -2.0 92 0.3 CALM 0 0 0 0 1026.4 1026.8 0.0
02/06:08am -1.2 -3.5 -2.3 92 0.3 CALM 0 0 0 0 1026.2 1026.6 0.0
02/06:00am -1.8 -4.6 -3.1 91 0.4 WSW 2 6 1 3 1026.2 1026.6 0.0
02/05:30am -1.9 -5.4 -3.2 91 0.4 SW 6 9 3 5 1025.9 1026.4 0.0
02/05:00am -2.4 -5.3 -4.0 89 0.4 SSE 2 6 1 3 1025.7 1026.2 0.0
02/04:33am -0.8 -3.1 -2.1 91 0.4 CALM 0 0 0 0 1025.3 1025.8 0.0
02/04:30am -0.4 -2.6 -1.7 91 0.4 CALM 0 0 0 0 1025.3 1025.8 0.0
02/04:00am -1.8 -4.2 -3.5 88 0.5 CALM 0 4 0 2 1025.2 1025.7 0.0
02/03:55am -1.0 -4.1 -2.6 89 0.5 ESE 4 9 2 5 1025.2 1025.7 0.0
02/03:30am 0.5 -3.3 -0.9 90 0.5 ESE 9 9 5 5 1025.2 1025.7 0.0
02/03:00am 0.6 -1.9 -1.2 88 0.7 E 2 7 1 4 1025.3 1025.8 0.0
02/02:30am 1.4 -1.0 -0.2 89 0.6 E 2 7 1 4 1025.2 1025.7 0.0
02/02:00am 2.4 0.4 0.1 85 0.9 CALM 0 0 0 0 1025.1 1025.6 0.0
02/01:30am 3.0 1.2 1.2 88 0.7 CALM 0 0 0 0 1025.2 1025.7 0.0
02/01:00am 2.5 0.6 0.7 88 0.7 CALM 0 0 0 0 1024.9 1025.3 0.0
02/12:30am 2.5 0.6 0.4 86 0.8 CALM 0 0 0 0 1024.6 1025.0 0.0
02/12:00am 3.1 1.3 1.0 86 0.8 CALM 0 0 0 0 1024.6 1025.0 0.0
 
Date/Time
EST
Temp
°C
App
Temp
°C
Dew
Point
°C
Rel
Hum
%
Delta-T
°C
Wind Press
QNH
hPa
Press
MSL
hPa
Rain since
9am
mm
Dir  Spd
km/h
Gust
km/h
Spd
kts
Gust
kts
01/11:30pm 2.8 0.9 0.5 85 0.9 CALM 0 0 0 0 1024.8 1025.2 0.0
01/11:00pm 2.9 -0.7 0.3 83 1.0 N 9 13 5 7 1024.9 1025.3 0.0
01/10:30pm 3.7 1.5 0.8 81 1.1 NNW 2 9 1 5 1024.7 1025.1 0.0
01/10:00pm 3.5 0.1 -0.3 76 1.4 W 7 11 4 6 1024.6 1025.0 0.0
01/09:30pm 5.9 3.8 1.8 75 1.7 WSW 2 13 1 7 1024.7 1025.1 0.0
01/09:00pm 4.9 3.1 1.2 77 1.5 CALM 0 0 0 0 1024.6 1025.0 0.0
01/08:30pm 5.8 2.3 1.2 72 1.9 SSW 9 15 5 8 1024.4 1024.8 0.0
01/08:00pm 5.9 2.0 1.4 73 1.8 WSW 11 15 6 8 1024.0 1024.4 0.0
01/07:30pm 5.2 0.9 1.1 75 1.6 SW 13 15 7 8 1023.9 1024.3 0.0
01/07:00pm 6.1 2.5 0.9 69 2.1 W 9 13 5 7 1023.3 1023.8 0.0
01/06:30pm 7.9 5.0 2.4 68 2.3 NNW 7 11 4 6 1022.7 1023.1 0.0
01/06:00pm 8.4 3.1 1.8 63 2.8 WSW 19 22 10 12 1022.0 1022.4 0.0
01/05:30pm 8.2 3.3 1.8 64 2.7 SW 17 20 9 11 1021.5 1021.9 0.0
01/05:00pm 10.1 4.9 2.2 58 3.4 WSW 19 22 10 12 1021.0 1021.4 0.0
01/04:30pm 12.0 7.1 1.9 50 4.4 W 17 22 9 12 1020.6 1021.0 0.0
01/04:00pm 13.0 8.1 1.7 46 5.0 W 17 22 9 12 1020.2 1020.6 0.0
01/03:30pm 13.3 6.5 1.0 43 5.3 W 26 33 14 18 1020.1 1020.5 0.0
01/03:00pm 13.8 7.4 1.1 42 5.5 W 24 35 13 19 1020.0 1020.4 0.0
01/02:30pm 13.7 7.2 0.0 39 5.8 WSW 24 35 13 19 1020.2 1020.6 0.0
01/02:00pm 14.2 8.5 3.1 47 5.1 WNW 22 32 12 17 1019.9 1020.3 0.0
01/01:30pm 13.3 7.2 2.8 49 4.7 WNW 24 33 13 18 1020.0 1020.4 0.0
01/01:00pm 13.4 6.5 2.6 48 4.9 WNW 28 35 15 19 1019.7 1020.1 0.0
01/12:30pm 12.6 7.7 4.3 57 3.9 WNW 19 30 10 16 1020.0 1020.4 0.0
01/12:00pm 13.3 7.9 2.5 48 4.8 NW 20 26 11 14 1020.2 1020.6 0.0
01/11:30am 12.9 8.0 4.1 55 4.1 WNW 19 28 10 15 1020.6 1021.0 0.0
01/11:00am 12.4 6.6 4.4 58 3.7 NW 24 32 13 17 1020.8 1021.2 0.0
01/10:30am 12.3 7.5 5.7 64 3.2 NW 20 28 11 15 1021.0 1021.4 0.0
01/10:00am 11.6 6.3 4.8 63 3.2 NNW 22 28 12 15 1021.1 1021.5 0.0
01/09:30am 10.8 5.7 4.3 64 3.0 NW 20 26 11 14 1021.0 1021.2 0.0
01/09:00am 10.1 5.2 4.3 67 2.6 NNW 19 24 10 13 1020.9 1021.1 0.0
01/08:30am 9.1 5.4 4.3 72 2.2 N 13 15 7 8 1020.8 1020.9 0.0
01/08:00am 8.2 4.4 3.7 73 2.0 NNW 13 17 7 9 1020.6 1020.8 0.0
01/07:30am 7.3 3.8 3.5 77 1.7 N 11 13 6 7 1020.3 1020.5 0.0
01/07:00am 7.5 4.0 3.6 76 1.7 NW 11 13 6 7 1020.0 1020.2 0.0
01/06:30am 8.0 4.2 3.7 74 1.9 NNW 13 17 7 9 1019.4 1019.6 0.0
01/06:00am 7.5 3.6 3.6 76 1.7 N 13 17 7 9 1019.2 1019.4 0.0
01/05:30am 7.0 3.1 3.3 77 1.6 NNW 13 15 7 8 1019.1 1019.3 0.0
01/05:00am 6.0 3.3 3.5 84 1.1 N 7 11 4 6 1019.0 1019.2 0.0
01/04:30am 4.6 1.6 2.3 85 0.9 ENE 7 7 4 4 1019.0 1019.2 0.0
01/04:00am 5.3 2.4 2.7 83 1.1 W 7 9 4 5 1019.0 1019.2 0.0
01/03:30am 4.3 0.9 1.8 84 1.0 W 9 11 5 6 1018.9 1019.1 0.0
01/03:00am 4.2 2.4 1.4 82 1.1 CALM 0 0 0 0 1018.8 1019.0 0.0
01/02:30am 4.0 1.9 1.5 84 1.0 N 2 7 1 4 1018.8 1019.0 0.0
01/02:00am 4.3 1.4 1.7 83 1.0 NNE 6 7 3 4 1019.0 1019.2 0.0
01/01:30am 4.5 2.8 1.7 82 1.1 CALM 0 0 0 0 1019.2 1019.4 0.0
01/01:00am 4.5 2.8 1.7 82 1.1 CALM 0 0 0 0 1019.4 1019.6 0.0
01/12:30am 4.3 1.4 1.3 81 1.2 N 6 7 3 4 1019.4 1019.6 0.0
01/12:00am 4.3 2.5 1.5 82 1.1 CALM 0 0 0 0 1019.8 1020.0 0.0
 
Date/Time
EST
Temp
°C
App
Temp
°C
Dew
Point
°C
Rel
Hum
%
Delta-T
°C
Wind Press
QNH
hPa
Press
MSL
hPa
Rain since
9am
mm
Dir  Spd
km/h
Gust
km/h
Spd
kts
Gust
kts
30/11:30pm 4.8 1.4 1.8 81 1.2 WNW 9 11 5 6 1019.7 1019.9 0.0
30/11:00pm 4.1 2.3 1.3 82 1.1 CALM 0 0 0 0 1019.8 1020.0 0.0
30/10:30pm 4.4 0.9 1.1 79 1.3 NW 9 11 5 6 1019.9 1020.1 0.0
30/10:00pm 5.0 1.6 1.7 79 1.3 W 9 13 5 7 1019.9 1020.1 0.0
30/09:30pm 4.7 0.8 1.4 79 1.3 WSW 11 15 6 8 1019.7 1019.9 0.0
30/09:00pm 6.6 2.9 2.3 74 1.8 NNW 11 13 6 7 1019.5 1019.7 0.0
30/08:30pm 7.0 3.2 1.7 69 2.2 NNW 11 13 6 7 1019.6 1019.8 0.0
30/08:00pm 7.3 2.8 2.2 70 2.1 NNW 15 17 8 9 1019.7 1019.9 0.0
30/07:30pm 8.3 4.6 2.5 67 2.5 N 11 13 6 7 1019.8 1020.0 0.0
30/07:00pm 9.3 6.0 2.6 63 2.9 NNW 9 13 5 7 1019.9 1020.1 0.0
30/06:30pm 10.2 5.9 3.5 63 3.0 NW 15 17 8 9 1019.7 1019.9 0.0
30/06:00pm 10.6 6.7 3.4 61 3.2 NW 13 17 7 9 1019.4 1019.6 0.0
30/05:30pm 10.3 6.8 3.6 63 3.0 NNW 11 13 6 7 1019.1 1019.3 0.0
30/05:00pm 11.6 7.7 3.6 58 3.6 NW 13 19 7 10 1019.2 1019.4 0.0
30/04:30pm 12.6 8.8 3.8 55 4.0 NW 13 15 7 8 1019.2 1019.4 0.0
30/04:00pm 13.4 8.2 3.8 52 4.4 WNW 20 28 11 15 1019.4 1019.6 0.0
30/03:30pm 13.5 8.6 4.1 53 4.4 NW 19 28 10 15 1019.4 1019.6 0.0
30/03:00pm 13.9 9.3 3.9 51 4.6 NW 17 22 9 12 1019.4 1019.6 0.0
30/02:30pm 14.7 9.7 3.8 48 5.1 NW 19 24 10 13 1019.7 1019.9 0.0
30/02:00pm 14.9 8.8 2.8 44 5.5 NW 24 32 13 17 1020.2 1020.4 0.0
30/01:30pm 14.9 9.6 3.1 45 5.4 NW 20 28 11 15 1020.8 1020.9 0.0
30/01:00pm 15.0 9.7 3.2 45 5.4 NNW 20 28 11 15 1021.3 1021.5 0.0
30/12:30pm 15.7 11.2 5.9 52 4.8 N 19 26 10 14 1022.0 1022.2 0.0
30/12:00pm 13.8 10.2 4.9 55 4.2 N 13 19 7 10 1022.8 1023.0 0.0
30/11:30am 13.1 9.8 4.5 56 4.0 N 11 20 6 11 1023.3 1023.6 0.0
30/11:00am 12.0 9.5 4.5 60 3.5 N 7 20 4 11 1024.0 1024.2 0.0
30/10:30am 10.8 9.1 3.8 62 3.2 SSW 2 6 1 3 1024.5 1024.7 0.0
30/10:00am 8.0 5.7 2.9 70 2.2 SSW 4 7 2 4 1024.7 1024.9 0.0
30/09:30am 6.6 3.7 2.5 75 1.7 S 7 9 4 5 1024.8 1025.0 0.0
30/09:00am 5.1 2.1 2.1 81 1.2 SSW 7 9 4 5 1024.5 1024.7 0.0
30/08:30am 3.7 0.6 1.4 85 0.9 ESE 7 11 4 6 1024.3 1024.5 0.0
30/08:00am 2.3 -0.3 1.0 91 0.5 ESE 4 7 2 4 1024.2 1024.4 0.0
30/07:30am -0.8 -4.2 -2.2 90 0.5 SE 6 7 3 4 1024.2 1024.4 0.0
30/07:00am -0.9 -4.6 -2.5 89 0.5 SSE 7 9 4 5 1023.9 1024.1 0.0
30/06:30am -0.1 -3.4 -1.2 92 0.4 S 6 9 3 5 1023.8 1024.0 0.0
30/06:00am -1.4 -3.8 -2.8 90 0.4 CALM 0 0 0 0 1023.7 1023.9 0.0
30/05:30am -0.6 -4.2 -2.2 89 0.5 SE 7 11 4 6 1023.6 1023.8 0.0
30/05:00am -0.1 -2.3 -1.8 88 0.6 CALM 0 9 0 5 1023.7 1023.9 0.0
30/04:30am 0.6 -2.7 -1.0 89 0.6 SE 6 6 3 3 1023.7 1023.9 0.0
30/04:00am 1.4 -0.6 0.1 91 0.5 CALM 0 0 0 0 1023.8 1024.0 0.0
30/03:30am 1.1 -0.9 -0.2 91 0.5 CALM 0 0 0 0 1023.9 1024.1 0.0
30/03:00am -1.5 -3.9 -3.5 86 0.6 CALM 0 6 0 3 1024.1 1024.3 0.0
30/02:30am 0.8 -2.6 -0.5 91 0.5 SW 7 9 4 5 1024.2 1024.4 0.0
30/02:00am 0.7 -3.1 -1.1 88 0.6 SSE 9 13 5 7 1024.4 1024.6 0.0
30/01:30am 1.0 -2.8 -0.6 89 0.6 SSE 9 11 5 6 1024.7 1024.9 0.0
30/01:00am 1.1 -2.1 -0.5 89 0.6 SE 6 9 3 5 1025.1 1025.4 0.0
30/12:30am 1.8 -2.6 0.3 90 0.6 SE 13 15 7 8 1025.2 1025.5 0.0
30/12:00am 1.2 -0.8 -0.1 91 0.5 CALM 0 0 0 0 1025.6 1025.9 0.0
 
Date/Time
EST
Temp
°C
App
Temp
°C
Dew
Point
°C
Rel
Hum
%
Delta-T
°C
Wind Press
QNH
hPa
Press
MSL
hPa
Rain since
9am
mm
Dir  Spd
km/h
Gust
km/h
Spd
kts
Gust
kts
29/11:55pm 0.8 -1.3 -0.6 90 0.5 CALM 0 0 0 0 1025.6 1025.9 0.0
29/11:32pm 1.4 -0.6 -0.2 89 0.6 CALM 0 0 0 0 1025.7 1026.0 0.0
29/11:30pm 1.6 -0.4 0.0 89 0.6 CALM 0 0 0 0 1025.7 1026.0 0.0
29/11:00pm 0.9 -2.4 -1.2 86 0.8 SSW 6 9 3 5 1025.8 1026.1 0.0
29/10:30pm 2.8 -0.3 1.2 89 0.6 SE 7 9 4 5 1025.9 1026.2 0.0
29/10:00pm 2.2 0.3 0.6 89 0.6 CALM 0 0 0 0 1025.9 1026.2 0.0
29/09:30pm 2.1 -1.6 -0.2 85 0.9 SSE 9 9 5 5 1025.9 1026.2 0.0
29/09:00pm 3.6 0.1 1.2 84 0.9 SE 9 9 5 5 1026.2 1026.4 0.0
29/08:30pm 4.3 0.9 1.8 84 1.0 ESE 9 11 5 6 1026.3 1026.5 0.0
29/08:00pm 4.7 1.9 2.1 83 1.1 E 6 9 3 5 1026.4 1026.6 0.0
29/07:30pm 5.8 2.5 2.4 79 1.4 W 9 9 5 5 1026.0 1026.3 0.0
29/07:00pm 5.6 2.7 2.4 80 1.3 W 7 9 4 5 1025.9 1026.2 0.0
29/06:30pm 7.3 5.8 2.8 73 1.9 CALM 0 6 0 3 1025.9 1026.2 0.0
29/06:00pm 9.6 7.0 4.4 70 2.3 E 7 7 4 4 1025.6 1025.9 0.0
29/05:30pm 10.3 7.8 4.5 67 2.7 NNE 7 9 4 5 1025.5 1025.8 0.0
29/05:00pm 12.0 9.5 3.5 56 3.8 NNW 6 7 3 4 1025.4 1025.7 0.0
29/04:30pm 13.9 11.2 3.7 50 4.7 NW 7 9 4 5 1025.6 1025.9 0.0
29/04:00pm 14.6 11.9 2.5 44 5.5 NNW 6 9 3 5 1025.6 1025.9 0.0
29/03:30pm 14.7 12.1 3.2 46 5.3 NW 6 9 3 5 1025.4 1025.7 0.0
29/03:00pm 14.6 11.2 1.8 42 5.7 NW 9 13 5 7 1025.4 1025.7 0.0
29/02:30pm 14.7 12.0 2.9 45 5.4 NW 6 11 3 6 1025.4 1025.7 0.0
29/02:00pm 14.2 10.8 2.1 44 5.4 NW 9 15 5 8 1025.5 1025.8 0.0
29/01:30pm 13.7 10.3 2.0 45 5.2 NW 9 15 5 8 1025.9 1026.2 0.0
29/01:00pm 13.6 10.8 2.2 46 5.1 N 6 9 3 5 1025.9 1026.2 0.0
29/12:30pm 12.8 10.6 3.2 52 4.4 W 4 9 2 5 1026.4 1026.6 0.0
29/12:00pm 11.5 8.7 2.3 53 4.0 ESE 6 13 3 7 1026.9 1027.1 0.0
29/11:30am 10.8 8.2 3.4 60 3.3 ESE 6 13 3 7 1027.4 1027.7 0.0
29/11:00am 9.6 6.4 2.9 63 2.9 SE 9 13 5 7 1027.9 1028.2 0.0
29/10:30am 8.9 5.8 3.5 69 2.4 SE 9 13 5 7 1028.4 1028.7 0.0

Other Formats:

Comma delimited format used in spreadsheet applications
http://www.bom.gov.au/fwo/IDN60801/IDN60801.95762.axf

JavaScript Object Notation format (JSON) in row-major order
http://www.bom.gov.au/fwo/IDN60801/IDN60801.95762.json